PWSweather.com
Personal Weather Stations
Station Observations
KMICHEBO10
Cordwood Point, Lake Huron, Cheboygan, MI 49721

Cordwood Point, Lake HuronCheboygan, MI 49721

Lat: 45.663372, Lon: -84.3327789

Elevation: 584

Station Type: Davis Vantage Pro2 Wireless

www.lakehuronweather.org

High Low Average
Temperature 11.2°F-11.6°C 5.8°F-14.6°C 8.1°F-13.3°C
Dew Point 7.0°F-13.9°C 1.1°F-17.2°C 3.5°F-15.8°C
Winds 4.6 mph 7.4 kmh Calm Calm 2.0 mph WSW3.2 kmh WSW
Wind Gusts 10.4 mph16.7 kmh -- 3.0 mph4.8 kmh
Humidity 88% 70% 81%
Pressure 30.55 in1034.5 mb 30.36 in1028.1 mb -
Precipitation 0.00 in0.0 mm - -
Hour Temp Dew Point Humidity Winds Wind Gusts Pressure Precip Precip Rate Daily Precip Total
12:00 AM 11.0°F-11.7°C 6.6°F-14.1°C 82% 3.5 mph NNW5.6 kmh NNW 4.6 mph7.4 kmh 30.36 in1028.1 mb - 0.00 in0.0 mm 0.00 in0.0 mm
12:10 AM 10.9°F-11.7°C 6.8°F-14.0°C 83% 2.3 mph N3.7 kmh N 3.5 mph5.6 kmh 30.36 in1028.1 mb - 0.00 in0.0 mm 0.00 in0.0 mm
12:20 AM 10.8°F-11.8°C 6.9°F-13.9°C 84% 2.3 mph NNW3.7 kmh NNW 5.8 mph9.3 kmh 30.36 in1028.1 mb - 0.00 in0.0 mm 0.00 in0.0 mm
12:30 AM 10.7°F-11.8°C 6.8°F-14.0°C 84% 2.3 mph N3.7 kmh N 3.5 mph5.6 kmh 30.36 in1028.1 mb - 0.00 in0.0 mm 0.00 in0.0 mm
12:40 AM 10.5°F-11.9°C 6.6°F-14.1°C 84% 1.2 mph N1.9 kmh N 3.5 mph5.6 kmh 30.36 in1028.1 mb - 0.00 in0.0 mm 0.00 in0.0 mm
12:50 AM 10.5°F-11.9°C 6.9°F-13.9°C 85% 1.2 mph N1.9 kmh N 2.3 mph3.7 kmh 30.36 in1028.1 mb - 0.00 in0.0 mm 0.00 in0.0 mm
01:00 AM 10.3°F-12.1°C 6.7°F-14.1°C 85% 1.2 mph N1.9 kmh N 2.3 mph3.7 kmh 30.36 in1028.1 mb - 0.00 in0.0 mm 0.00 in0.0 mm
01:10 AM 10.4°F-12.0°C 7.0°F-13.9°C 86% 2.3 mph NNW3.7 kmh NNW 3.5 mph5.6 kmh 30.37 in1028.4 mb - 0.00 in0.0 mm 0.00 in0.0 mm
01:20 AM 10.2°F-12.1°C 6.3°F-14.3°C 84% 1.2 mph NNW1.9 kmh NNW 2.3 mph3.7 kmh 30.36 in1028.1 mb - 0.00 in0.0 mm 0.00 in0.0 mm
01:30 AM 10.0°F-12.2°C 6.4°F-14.2°C 85% 1.2 mph N1.9 kmh N 2.3 mph3.7 kmh 30.36 in1028.1 mb - 0.00 in0.0 mm 0.00 in0.0 mm
01:40 AM 9.9°F-12.3°C 6.3°F-14.3°C 85% 2.3 mph N3.7 kmh N 3.5 mph5.6 kmh 30.36 in1028.1 mb - 0.00 in0.0 mm 0.00 in0.0 mm
01:50 AM 9.7°F-12.4°C 6.1°F-14.4°C 85% 2.3 mph N3.7 kmh N 2.3 mph3.7 kmh 30.36 in1028.1 mb - 0.00 in0.0 mm 0.00 in0.0 mm
02:00 AM 9.7°F-12.4°C 6.1°F-14.4°C 85% 1.2 mph N1.9 kmh N 3.5 mph5.6 kmh 30.36 in1028.1 mb - 0.00 in0.0 mm 0.00 in0.0 mm
02:10 AM 9.4°F-12.6°C 6.1°F-14.4°C 86% 1.2 mph N1.9 kmh N 2.3 mph3.7 kmh 30.36 in1028.1 mb - 0.00 in0.0 mm 0.00 in0.0 mm
02:20 AM 9.3°F-12.6°C 5.7°F-14.6°C 85% 2.3 mph N3.7 kmh N 3.5 mph5.6 kmh 30.37 in1028.4 mb - 0.00 in0.0 mm 0.00 in0.0 mm
02:30 AM 9.0°F-12.8°C 5.1°F-14.9°C 84% 1.2 mph N1.9 kmh N 2.3 mph3.7 kmh 30.37 in1028.4 mb - 0.00 in0.0 mm 0.00 in0.0 mm
02:40 AM 8.7°F-12.9°C 4.6°F-15.2°C 83% 2.3 mph NNW3.7 kmh NNW 2.3 mph3.7 kmh 30.37 in1028.4 mb - 0.00 in0.0 mm 0.00 in0.0 mm
02:50 AM 8.4°F-13.1°C 4.0°F-15.6°C 82% 3.5 mph NNW5.6 kmh NNW 3.5 mph5.6 kmh 30.38 in1028.8 mb - 0.00 in0.0 mm 0.00 in0.0 mm
03:00 AM 8.2°F-13.2°C 4.1°F-15.5°C 83% 2.3 mph N3.7 kmh N 5.8 mph9.3 kmh 30.38 in1028.8 mb - 0.00 in0.0 mm 0.00 in0.0 mm
03:10 AM 8.3°F-13.2°C 4.2°F-15.4°C 83% 1.2 mph N1.9 kmh N 2.3 mph3.7 kmh 30.38 in1028.8 mb - 0.00 in0.0 mm 0.00 in0.0 mm
03:20 AM 8.1°F-13.3°C 3.5°F-15.8°C 81% 1.2 mph N1.9 kmh N 2.3 mph3.7 kmh 30.38 in1028.8 mb - 0.00 in0.0 mm 0.00 in0.0 mm
03:30 AM 8.0°F-13.3°C 3.1°F-16.1°C 80% 1.2 mph N1.9 kmh N 3.5 mph5.6 kmh 30.39 in1029.1 mb - 0.00 in0.0 mm 0.00 in0.0 mm
03:40 AM 8.0°F-13.3°C 3.1°F-16.1°C 80% 1.2 mph NNW1.9 kmh NNW 2.3 mph3.7 kmh 30.40 in1029.5 mb - 0.00 in0.0 mm 0.00 in0.0 mm
03:50 AM 8.2°F-13.2°C 3.8°F-15.7°C 82% 2.3 mph N3.7 kmh N 3.5 mph5.6 kmh 30.40 in1029.5 mb - 0.00 in0.0 mm 0.00 in0.0 mm
04:00 AM 8.2°F-13.2°C 3.3°F-15.9°C 80% 2.3 mph N3.7 kmh N 4.6 mph7.4 kmh 30.40 in1029.5 mb - 0.00 in0.0 mm 0.00 in0.0 mm
04:10 AM 8.2°F-13.2°C 3.3°F-15.9°C 80% 1.2 mph N1.9 kmh N 2.3 mph3.7 kmh 30.40 in1029.5 mb - 0.00 in0.0 mm 0.00 in0.0 mm
04:20 AM 8.3°F-13.2°C 3.1°F-16.1°C 79% 1.2 mph N1.9 kmh N 4.6 mph7.4 kmh 30.40 in1029.5 mb - 0.00 in0.0 mm 0.00 in0.0 mm
04:30 AM 8.2°F-13.2°C 3.0°F-16.1°C 79% 2.3 mph N3.7 kmh N 10.4 mph16.7 kmh 30.40 in1029.5 mb - 0.00 in0.0 mm 0.00 in0.0 mm
04:40 AM 8.2°F-13.2°C 3.0°F-16.1°C 79% 2.3 mph N3.7 kmh N 5.8 mph9.3 kmh 30.40 in1029.5 mb - 0.00 in0.0 mm 0.00 in0.0 mm
04:50 AM 8.1°F-13.3°C 2.7°F-16.3°C 78% 1.2 mph N1.9 kmh N 2.3 mph3.7 kmh 30.41 in1029.8 mb - 0.00 in0.0 mm 0.00 in0.0 mm
05:00 AM 7.9°F-13.4°C 2.2°F-16.6°C 77% 2.3 mph N3.7 kmh N 3.5 mph5.6 kmh 30.40 in1029.5 mb - 0.00 in0.0 mm 0.00 in0.0 mm
05:10 AM 7.6°F-13.6°C 2.5°F-16.4°C 79% 3.5 mph N5.6 kmh N 4.6 mph7.4 kmh 30.40 in1029.5 mb - 0.00 in0.0 mm 0.00 in0.0 mm
05:20 AM 7.3°F-13.7°C 2.2°F-16.6°C 79% 3.5 mph N5.6 kmh N 4.6 mph7.4 kmh 30.40 in1029.5 mb - 0.00 in0.0 mm 0.00 in0.0 mm
05:30 AM 7.0°F-13.9°C 2.2°F-16.6°C 80% 3.5 mph N5.6 kmh N 5.8 mph9.3 kmh 30.40 in1029.5 mb - 0.00 in0.0 mm 0.00 in0.0 mm
05:40 AM 6.9°F-13.9°C 2.0°F-16.7°C 80% 2.3 mph N3.7 kmh N 3.5 mph5.6 kmh 30.40 in1029.5 mb - 0.00 in0.0 mm 0.00 in0.0 mm
05:50 AM 6.8°F-14.0°C 2.2°F-16.6°C 81% 2.3 mph N3.7 kmh N 4.6 mph7.4 kmh 30.40 in1029.5 mb - 0.00 in0.0 mm 0.00 in0.0 mm
06:00 AM 6.7°F-14.1°C 2.4°F-16.4°C 82% 3.5 mph NNW5.6 kmh NNW 3.5 mph5.6 kmh 30.40 in1029.5 mb - 0.00 in0.0 mm 0.00 in0.0 mm
06:10 AM 6.6°F-14.1°C 2.3°F-16.5°C 82% 3.5 mph N5.6 kmh N 6.9 mph11.1 kmh 30.40 in1029.5 mb - 0.00 in0.0 mm 0.00 in0.0 mm
06:20 AM 6.6°F-14.1°C 2.5°F-16.4°C 83% 2.3 mph NNW3.7 kmh NNW 3.5 mph5.6 kmh 30.40 in1029.5 mb - 0.00 in0.0 mm 0.00 in0.0 mm
06:30 AM 6.6°F-14.1°C 2.5°F-16.4°C 83% 2.3 mph N3.7 kmh N 6.9 mph11.1 kmh 30.40 in1029.5 mb - 0.00 in0.0 mm 0.00 in0.0 mm
06:40 AM 6.8°F-14.0°C 3.0°F-16.1°C 84% 2.3 mph N3.7 kmh N 4.6 mph7.4 kmh 30.41 in1029.8 mb - 0.00 in0.0 mm 0.00 in0.0 mm
06:50 AM 6.9°F-13.9°C 3.1°F-16.1°C 84% 3.5 mph NNW5.6 kmh NNW 4.6 mph7.4 kmh 30.42 in1030.1 mb - 0.00 in0.0 mm 0.00 in0.0 mm
07:00 AM 7.0°F-13.9°C 3.2°F-16.0°C 84% 2.3 mph NNW3.7 kmh NNW 3.5 mph5.6 kmh 30.42 in1030.1 mb - 0.00 in0.0 mm 0.00 in0.0 mm
07:10 AM 7.0°F-13.9°C 2.9°F-16.2°C 83% 3.5 mph N5.6 kmh N 5.8 mph9.3 kmh 30.42 in1030.1 mb - 0.00 in0.0 mm 0.00 in0.0 mm
07:20 AM 7.1°F-13.8°C 3.3°F-15.9°C 84% 3.5 mph N5.6 kmh N 4.6 mph7.4 kmh 30.43 in1030.5 mb - 0.00 in0.0 mm 0.00 in0.0 mm
07:30 AM 7.2°F-13.8°C 3.7°F-15.7°C 85% 2.3 mph N3.7 kmh N 4.6 mph7.4 kmh 30.43 in1030.5 mb - 0.00 in0.0 mm 0.00 in0.0 mm
07:40 AM 7.0°F-13.9°C 2.7°F-16.3°C 82% 2.3 mph N3.7 kmh N 4.6 mph7.4 kmh 30.43 in1030.5 mb - 0.00 in0.0 mm 0.00 in0.0 mm
07:50 AM 6.9°F-13.9°C 3.1°F-16.1°C 84% 3.5 mph NNW5.6 kmh NNW 9.2 mph14.8 kmh 30.44 in1030.8 mb - 0.00 in0.0 mm 0.00 in0.0 mm
08:00 AM 6.7°F-14.1°C 2.6°F-16.3°C 83% 3.5 mph N5.6 kmh N 9.2 mph14.8 kmh 30.44 in1030.8 mb - 0.00 in0.0 mm 0.00 in0.0 mm
08:10 AM 6.5°F-14.2°C 2.4°F-16.4°C 83% 3.5 mph N5.6 kmh N 4.6 mph7.4 kmh 30.44 in1030.8 mb - 0.00 in0.0 mm 0.00 in0.0 mm
08:20 AM 6.2°F-14.3°C 2.2°F-16.6°C 83% 4.6 mph NNW7.4 kmh NNW 6.9 mph11.1 kmh 30.45 in1031.2 mb - 0.00 in0.0 mm 0.00 in0.0 mm
08:30 AM 6.2°F-14.3°C 2.1°F-16.6°C 83% 1.2 mph N1.9 kmh N 3.5 mph5.6 kmh 30.45 in1031.2 mb - 0.00 in0.0 mm 0.00 in0.0 mm
08:40 AM 6.1°F-14.4°C 2.3°F-16.5°C 84% 1.2 mph NNW1.9 kmh NNW 3.5 mph5.6 kmh 30.46 in1031.5 mb - 0.00 in0.0 mm 0.00 in0.0 mm
08:50 AM 6.0°F-14.4°C 1.9°F-16.7°C 83% 1.2 mph N1.9 kmh N 4.6 mph7.4 kmh 30.46 in1031.5 mb - 0.00 in0.0 mm 0.00 in0.0 mm
09:00 AM 6.2°F-14.3°C 2.4°F-16.4°C 84% 3.5 mph N5.6 kmh N 6.9 mph11.1 kmh 30.46 in1031.5 mb - 0.00 in0.0 mm 0.00 in0.0 mm
09:10 AM 6.4°F-14.2°C 2.3°F-16.5°C 83% 2.3 mph NNW3.7 kmh NNW 5.8 mph9.3 kmh 30.47 in1031.8 mb - 0.00 in0.0 mm 0.00 in0.0 mm
09:20 AM 6.4°F-14.2°C 2.3°F-16.5°C 83% 3.5 mph NNW5.6 kmh NNW 8.1 mph13.0 kmh 30.47 in1031.8 mb - 0.00 in0.0 mm 0.00 in0.0 mm
09:30 AM 6.4°F-14.2°C 2.0°F-16.7°C 82% 2.3 mph N3.7 kmh N 2.3 mph3.7 kmh 30.48 in1032.2 mb - 0.00 in0.0 mm 0.00 in0.0 mm
09:40 AM 6.3°F-14.3°C 2.0°F-16.7°C 82% 2.3 mph NNE3.7 kmh NNE 4.6 mph7.4 kmh 30.48 in1032.2 mb - 0.00 in0.0 mm 0.00 in0.0 mm
09:50 AM 6.0°F-14.4°C 1.4°F-17.0°C 81% 2.3 mph N3.7 kmh N 4.6 mph7.4 kmh 30.49 in1032.5 mb - 0.00 in0.0 mm 0.00 in0.0 mm
10:00 AM 5.9°F-14.5°C 1.3°F-17.1°C 81% 1.2 mph N1.9 kmh N 4.6 mph7.4 kmh 30.49 in1032.5 mb - 0.00 in0.0 mm 0.00 in0.0 mm
10:10 AM 5.8°F-14.6°C 1.2°F-17.1°C 81% 2.3 mph NNW3.7 kmh NNW 6.9 mph11.1 kmh 30.49 in1032.5 mb - 0.00 in0.0 mm 0.00 in0.0 mm
10:20 AM 5.9°F-14.5°C 1.1°F-17.2°C 80% 3.5 mph NNW5.6 kmh NNW 5.8 mph9.3 kmh 30.50 in1032.8 mb - 0.00 in0.0 mm 0.00 in0.0 mm
10:30 AM 5.9°F-14.5°C 1.3°F-17.1°C 81% 3.5 mph N5.6 kmh N 6.9 mph11.1 kmh 30.50 in1032.8 mb - 0.00 in0.0 mm 0.00 in0.0 mm
10:40 AM 5.8°F-14.6°C 1.2°F-17.1°C 81% 1.2 mph NNW1.9 kmh NNW 3.5 mph5.6 kmh 30.50 in1032.8 mb - 0.00 in0.0 mm 0.00 in0.0 mm
10:50 AM 5.9°F-14.5°C 1.3°F-17.1°C 81% 2.3 mph N3.7 kmh N 6.9 mph11.1 kmh 30.51 in1033.2 mb - 0.00 in0.0 mm 0.00 in0.0 mm
11:00 AM 6.2°F-14.3°C 1.6°F-16.9°C 81% 2.3 mph NW3.7 kmh NW 4.6 mph7.4 kmh 30.51 in1033.2 mb - 0.00 in0.0 mm 0.00 in0.0 mm
11:10 AM 6.3°F-14.3°C 2.0°F-16.7°C 82% 3.5 mph N5.6 kmh N 5.8 mph9.3 kmh 30.51 in1033.2 mb - 0.00 in0.0 mm 0.00 in0.0 mm
11:20 AM 6.3°F-14.3°C 1.4°F-17.0°C 80% 2.3 mph NNW3.7 kmh NNW 4.6 mph7.4 kmh 30.51 in1033.2 mb - 0.00 in0.0 mm 0.00 in0.0 mm
11:30 AM 6.5°F-14.2°C 1.9°F-16.7°C 81% 3.5 mph NW5.6 kmh NW 5.8 mph9.3 kmh 30.51 in1033.2 mb - 0.00 in0.0 mm 0.00 in0.0 mm
11:40 AM 6.6°F-14.1°C 2.0°F-16.7°C 81% 1.2 mph N1.9 kmh N 3.5 mph5.6 kmh 30.51 in1033.2 mb - 0.00 in0.0 mm 0.00 in0.0 mm
11:50 AM 6.5°F-14.2°C 1.1°F-17.2°C 78% 1.2 mph N1.9 kmh N 2.3 mph3.7 kmh 30.51 in1033.2 mb - 0.00 in0.0 mm 0.00 in0.0 mm
12:00 PM 6.7°F-14.1°C 1.3°F-17.1°C 78% 1.2 mph N1.9 kmh N 3.5 mph5.6 kmh 30.50 in1032.8 mb - 0.00 in0.0 mm 0.00 in0.0 mm
12:10 PM 6.8°F-14.0°C 1.4°F-17.0°C 78% 1.2 mph NNW1.9 kmh NNW 3.5 mph5.6 kmh 30.50 in1032.8 mb - 0.00 in0.0 mm 0.00 in0.0 mm
12:20 PM 6.8°F-14.0°C 1.4°F-17.0°C 78% Calm Calm 1.2 mph1.9 kmh 30.51 in1033.2 mb - 0.00 in0.0 mm 0.00 in0.0 mm
12:30 PM 7.0°F-13.9°C 1.6°F-16.9°C 78% 1.2 mph WSW1.9 kmh WSW 2.3 mph3.7 kmh 30.50 in1032.8 mb - 0.00 in0.0 mm 0.00 in0.0 mm
12:40 PM 7.4°F-13.7°C 1.7°F-16.8°C 77% 1.2 mph SW1.9 kmh SW 2.3 mph3.7 kmh 30.50 in1032.8 mb - 0.00 in0.0 mm 0.00 in0.0 mm
12:50 PM 7.8°F-13.4°C 1.8°F-16.8°C 76% 1.2 mph NW1.9 kmh NW 2.3 mph3.7 kmh 30.50 in1032.8 mb - 0.00 in0.0 mm 0.00 in0.0 mm
01:00 PM 8.0°F-13.3°C 1.7°F-16.8°C 75% 1.2 mph NW1.9 kmh NW 2.3 mph3.7 kmh 30.49 in1032.5 mb - 0.00 in0.0 mm 0.00 in0.0 mm
01:10 PM 8.1°F-13.3°C 1.5°F-16.9°C 74% 1.2 mph N1.9 kmh N 2.3 mph3.7 kmh 30.49 in1032.5 mb - 0.00 in0.0 mm 0.00 in0.0 mm
01:20 PM 8.3°F-13.2°C 1.1°F-17.2°C 72% Calm Calm 2.3 mph3.7 kmh 30.49 in1032.5 mb - 0.00 in0.0 mm 0.00 in0.0 mm
01:30 PM 8.7°F-12.9°C 1.5°F-16.9°C 72% 2.3 mph SW3.7 kmh SW 4.6 mph7.4 kmh 30.49 in1032.5 mb - 0.00 in0.0 mm 0.00 in0.0 mm
01:40 PM 9.2°F-12.7°C 2.0°F-16.7°C 72% 1.2 mph N1.9 kmh N 3.5 mph5.6 kmh 30.49 in1032.5 mb - 0.00 in0.0 mm 0.00 in0.0 mm
01:50 PM 9.6°F-12.4°C 1.8°F-16.8°C 70% 1.2 mph WSW1.9 kmh WSW 3.5 mph5.6 kmh 30.49 in1032.5 mb - 0.00 in0.0 mm 0.00 in0.0 mm
02:00 PM 10.1°F-12.2°C 2.6°F-16.3°C 71% Calm Calm 1.2 mph1.9 kmh 30.49 in1032.5 mb - 0.00 in0.0 mm 0.00 in0.0 mm
02:10 PM 10.4°F-12.0°C 2.5°F-16.4°C 70% 1.2 mph NNW1.9 kmh NNW 2.3 mph3.7 kmh 30.49 in1032.5 mb - 0.00 in0.0 mm 0.00 in0.0 mm
02:20 PM 10.6°F-11.9°C 2.7°F-16.3°C 70% Calm Calm 1.2 mph1.9 kmh 30.49 in1032.5 mb - 0.00 in0.0 mm 0.00 in0.0 mm
02:30 PM 10.8°F-11.8°C 3.2°F-16.0°C 71% Calm Calm 1.2 mph1.9 kmh 30.49 in1032.5 mb - 0.00 in0.0 mm 0.00 in0.0 mm
02:40 PM 11.0°F-11.7°C 3.4°F-15.9°C 71% 1.2 mph N1.9 kmh N 4.6 mph7.4 kmh 30.49 in1032.5 mb - 0.00 in0.0 mm 0.00 in0.0 mm
02:50 PM 11.2°F-11.6°C 3.6°F-15.8°C 71% 1.2 mph NE1.9 kmh NE 2.3 mph3.7 kmh 30.49 in1032.5 mb - 0.00 in0.0 mm 0.00 in0.0 mm
03:00 PM 11.2°F-11.6°C 4.2°F-15.4°C 73% Calm Calm 3.5 mph5.6 kmh 30.49 in1032.5 mb - 0.00 in0.0 mm 0.00 in0.0 mm
03:10 PM 11.0°F-11.7°C 3.7°F-15.7°C 72% Calm Calm 1.2 mph1.9 kmh 30.50 in1032.8 mb - 0.00 in0.0 mm 0.00 in0.0 mm
03:20 PM 10.9°F-11.7°C 3.6°F-15.8°C 72% 1.2 mph NW1.9 kmh NW 1.2 mph1.9 kmh 30.50 in1032.8 mb - 0.00 in0.0 mm 0.00 in0.0 mm
03:30 PM 10.7°F-11.8°C 2.8°F-16.2°C 70% 1.2 mph WNW1.9 kmh WNW 2.3 mph3.7 kmh 30.50 in1032.8 mb - 0.00 in0.0 mm 0.00 in0.0 mm
03:40 PM 10.6°F-11.9°C 3.9°F-15.6°C 74% Calm Calm 1.2 mph1.9 kmh 30.50 in1032.8 mb - 0.00 in0.0 mm 0.00 in0.0 mm
03:50 PM 10.5°F-11.9°C 4.4°F-15.3°C 76% Calm Calm 2.3 mph3.7 kmh 30.50 in1032.8 mb - 0.00 in0.0 mm 0.00 in0.0 mm
04:00 PM 10.5°F-11.9°C 4.4°F-15.3°C 76% Calm Calm 1.2 mph1.9 kmh 30.51 in1033.2 mb - 0.00 in0.0 mm 0.00 in0.0 mm
04:10 PM 10.5°F-11.9°C 4.1°F-15.5°C 75% 1.2 mph SW1.9 kmh SW 2.3 mph3.7 kmh 30.51 in1033.2 mb - 0.00 in0.0 mm 0.00 in0.0 mm
04:20 PM 10.4°F-12.0°C 4.0°F-15.6°C 75% Calm Calm 1.2 mph1.9 kmh 30.51 in1033.2 mb - 0.00 in0.0 mm 0.00 in0.0 mm
04:30 PM 10.4°F-12.0°C 4.3°F-15.4°C 76% Calm Calm 1.2 mph1.9 kmh 30.51 in1033.2 mb - 0.00 in0.0 mm 0.00 in0.0 mm
04:40 PM 10.2°F-12.1°C 4.4°F-15.3°C 77% Calm Calm 2.3 mph3.7 kmh 30.52 in1033.5 mb - 0.00 in0.0 mm 0.00 in0.0 mm
04:50 PM 10.0°F-12.2°C 4.2°F-15.4°C 77% Calm Calm -- 30.52 in1033.5 mb - 0.00 in0.0 mm 0.00 in0.0 mm
05:00 PM 9.7°F-12.4°C 3.9°F-15.6°C 77% Calm Calm -- 30.52 in1033.5 mb - 0.00 in0.0 mm 0.00 in0.0 mm
05:10 PM 9.4°F-12.6°C 3.9°F-15.6°C 78% Calm Calm -- 30.52 in1033.5 mb - 0.00 in0.0 mm 0.00 in0.0 mm
05:20 PM 9.1°F-12.7°C 3.9°F-15.6°C 79% Calm Calm 1.2 mph1.9 kmh 30.52 in1033.5 mb - 0.00 in0.0 mm 0.00 in0.0 mm
05:30 PM 8.9°F-12.8°C 4.0°F-15.6°C 80% 1.2 mph SW1.9 kmh SW 1.2 mph1.9 kmh 30.52 in1033.5 mb - 0.00 in0.0 mm 0.00 in0.0 mm
05:40 PM 8.6°F-13.0°C 4.0°F-15.6°C 81% Calm Calm 2.3 mph3.7 kmh 30.52 in1033.5 mb - 0.00 in0.0 mm 0.00 in0.0 mm
05:50 PM 8.3°F-13.2°C 3.6°F-15.8°C 81% Calm Calm 1.2 mph1.9 kmh 30.53 in1033.9 mb - 0.00 in0.0 mm 0.00 in0.0 mm
06:00 PM 7.8°F-13.4°C 3.4°F-15.9°C 82% Calm Calm 1.2 mph1.9 kmh 30.54 in1034.2 mb - 0.00 in0.0 mm 0.00 in0.0 mm
06:10 PM 7.6°F-13.6°C 3.5°F-15.8°C 83% Calm Calm 1.2 mph1.9 kmh 30.53 in1033.9 mb - 0.00 in0.0 mm 0.00 in0.0 mm
06:20 PM 7.6°F-13.6°C 3.8°F-15.7°C 84% 1.2 mph S1.9 kmh S 2.3 mph3.7 kmh 30.53 in1033.9 mb - 0.00 in0.0 mm 0.00 in0.0 mm
06:30 PM 8.1°F-13.3°C 4.3°F-15.4°C 84% 1.2 mph SW1.9 kmh SW 1.2 mph1.9 kmh 30.53 in1033.9 mb - 0.00 in0.0 mm 0.00 in0.0 mm
06:40 PM 8.3°F-13.2°C 4.2°F-15.4°C 83% Calm Calm 1.2 mph1.9 kmh 30.53 in1033.9 mb - 0.00 in0.0 mm 0.00 in0.0 mm
06:50 PM 8.5°F-13.1°C 4.4°F-15.3°C 83% Calm Calm 1.2 mph1.9 kmh 30.53 in1033.9 mb - 0.00 in0.0 mm 0.00 in0.0 mm
07:00 PM 8.8°F-12.9°C 4.9°F-15.1°C 84% 1.2 mph SSW1.9 kmh SSW 2.3 mph3.7 kmh 30.53 in1033.9 mb - 0.00 in0.0 mm 0.00 in0.0 mm
07:10 PM 8.9°F-12.8°C 4.5°F-15.3°C 82% 1.2 mph SW1.9 kmh SW 2.3 mph3.7 kmh 30.53 in1033.9 mb - 0.00 in0.0 mm 0.00 in0.0 mm
07:20 PM 8.9°F-12.8°C 4.5°F-15.3°C 82% 1.2 mph SSW1.9 kmh SSW 2.3 mph3.7 kmh 30.53 in1033.9 mb - 0.00 in0.0 mm 0.00 in0.0 mm
07:30 PM 8.8°F-12.9°C 4.7°F-15.2°C 83% Calm Calm 2.3 mph3.7 kmh 30.54 in1034.2 mb - 0.00 in0.0 mm 0.00 in0.0 mm
07:40 PM 8.6°F-13.0°C 4.8°F-15.1°C 84% 1.2 mph SSW1.9 kmh SSW 2.3 mph3.7 kmh 30.54 in1034.2 mb - 0.00 in0.0 mm 0.00 in0.0 mm
07:50 PM 8.6°F-13.0°C 4.7°F-15.2°C 84% 1.2 mph SSW1.9 kmh SSW 3.5 mph5.6 kmh 30.54 in1034.2 mb - 0.00 in0.0 mm 0.00 in0.0 mm
08:00 PM 8.5°F-13.1°C 4.9°F-15.1°C 85% 1.2 mph S1.9 kmh S 3.5 mph5.6 kmh 30.54 in1034.2 mb - 0.00 in0.0 mm 0.00 in0.0 mm
08:10 PM 8.3°F-13.2°C 4.7°F-15.2°C 85% 1.2 mph SSW1.9 kmh SSW 3.5 mph5.6 kmh 30.54 in1034.2 mb - 0.00 in0.0 mm 0.00 in0.0 mm
08:20 PM 8.3°F-13.2°C 5.0°F-15.0°C 86% 1.2 mph SSW1.9 kmh SSW 2.3 mph3.7 kmh 30.54 in1034.2 mb - 0.00 in0.0 mm 0.00 in0.0 mm
08:30 PM 8.5°F-13.1°C 5.2°F-14.9°C 86% 1.2 mph S1.9 kmh S 2.3 mph3.7 kmh 30.54 in1034.2 mb - 0.00 in0.0 mm 0.00 in0.0 mm
08:40 PM 8.9°F-12.8°C 5.6°F-14.7°C 86% 1.2 mph S1.9 kmh S 2.3 mph3.7 kmh 30.54 in1034.2 mb - 0.00 in0.0 mm 0.00 in0.0 mm
08:50 PM 8.9°F-12.8°C 5.6°F-14.7°C 86% 1.2 mph SW1.9 kmh SW 2.3 mph3.7 kmh 30.54 in1034.2 mb - 0.00 in0.0 mm 0.00 in0.0 mm
09:00 PM 8.9°F-12.8°C 5.6°F-14.7°C 86% 1.2 mph SW1.9 kmh SW 3.5 mph5.6 kmh 30.54 in1034.2 mb - 0.00 in0.0 mm 0.00 in0.0 mm
09:10 PM 8.7°F-12.9°C 5.4°F-14.8°C 86% 1.2 mph SW1.9 kmh SW 2.3 mph3.7 kmh 30.54 in1034.2 mb - 0.00 in0.0 mm 0.00 in0.0 mm
09:20 PM 8.7°F-12.9°C 5.4°F-14.8°C 86% 1.2 mph SSW1.9 kmh SSW 2.3 mph3.7 kmh 30.54 in1034.2 mb - 0.00 in0.0 mm 0.00 in0.0 mm
09:30 PM 8.5°F-13.1°C 5.2°F-14.9°C 86% 1.2 mph SSW1.9 kmh SSW 1.2 mph1.9 kmh 30.53 in1033.9 mb - 0.00 in0.0 mm 0.00 in0.0 mm
09:40 PM 8.3°F-13.2°C 5.0°F-15.0°C 86% Calm Calm 1.2 mph1.9 kmh 30.54 in1034.2 mb - 0.00 in0.0 mm 0.00 in0.0 mm
09:50 PM 8.0°F-13.3°C 4.7°F-15.2°C 86% 1.2 mph SSW1.9 kmh SSW 2.3 mph3.7 kmh 30.54 in1034.2 mb - 0.00 in0.0 mm 0.00 in0.0 mm
10:00 PM 7.7°F-13.5°C 4.6°F-15.2°C 87% 1.2 mph WSW1.9 kmh WSW 2.3 mph3.7 kmh 30.54 in1034.2 mb - 0.00 in0.0 mm 0.00 in0.0 mm
10:10 PM 7.5°F-13.6°C 4.4°F-15.3°C 87% 1.2 mph SW1.9 kmh SW 4.6 mph7.4 kmh 30.54 in1034.2 mb - 0.00 in0.0 mm 0.00 in0.0 mm
10:20 PM 7.3°F-13.7°C 4.2°F-15.4°C 87% 1.2 mph S1.9 kmh S 2.3 mph3.7 kmh 30.54 in1034.2 mb - 0.00 in0.0 mm 0.00 in0.0 mm
10:30 PM 7.0°F-13.9°C 3.9°F-15.6°C 87% 1.2 mph S1.9 kmh S 2.3 mph3.7 kmh 30.54 in1034.2 mb - 0.00 in0.0 mm 0.00 in0.0 mm
10:40 PM 6.7°F-14.1°C 3.7°F-15.7°C 87% 1.2 mph SW1.9 kmh SW 2.3 mph3.7 kmh 30.54 in1034.2 mb - 0.00 in0.0 mm 0.00 in0.0 mm
10:50 PM 6.4°F-14.2°C 3.6°F-15.8°C 88% 1.2 mph SW1.9 kmh SW 2.3 mph3.7 kmh 30.55 in1034.5 mb - 0.00 in0.0 mm 0.00 in0.0 mm
11:00 PM 6.1°F-14.4°C 3.1°F-16.1°C 87% 1.2 mph SSW1.9 kmh SSW 2.3 mph3.7 kmh 30.55 in1034.5 mb - 0.00 in0.0 mm 0.00 in0.0 mm
11:10 PM 6.0°F-14.4°C 3.2°F-16.0°C 88% 1.2 mph S1.9 kmh S 2.3 mph3.7 kmh 30.55 in1034.5 mb - 0.00 in0.0 mm 0.00 in0.0 mm
11:20 PM 6.0°F-14.4°C 3.2°F-16.0°C 88% 1.2 mph SSW1.9 kmh SSW 2.3 mph3.7 kmh 30.55 in1034.5 mb - 0.00 in0.0 mm 0.00 in0.0 mm
11:30 PM 6.0°F-14.4°C 3.2°F-16.0°C 88% 1.2 mph SW1.9 kmh SW 2.3 mph3.7 kmh 30.55 in1034.5 mb - 0.00 in0.0 mm 0.00 in0.0 mm
11:40 PM 5.9°F-14.5°C 3.1°F-16.1°C 88% 1.2 mph SW1.9 kmh SW 2.3 mph3.7 kmh 30.55 in1034.5 mb - 0.00 in0.0 mm 0.00 in0.0 mm
11:50 PM 5.9°F-14.5°C 3.1°F-16.1°C 88% 1.2 mph SSW1.9 kmh SSW 3.5 mph5.6 kmh 30.55 in1034.5 mb - 0.00 in0.0 mm 0.00 in0.0 mm